sensor_id;sensor_type;location;lat;lon;timestamp;P1;durP1;ratioP1;P2;durP2;ratioP2
65831;SDS011;52593;42.648;23.332;2023-07-20T00:01:13;9.33;;;2.67;;
65831;SDS011;52593;42.648;23.332;2023-07-20T00:03:39;10.15;;;2.20;;
65831;SDS011;52593;42.648;23.332;2023-07-20T00:06:04;10.63;;;2.20;;
65831;SDS011;52593;42.648;23.332;2023-07-20T00:08:30;10.03;;;2.13;;
65831;SDS011;52593;42.648;23.332;2023-07-20T00:10:55;8.50;;;2.30;;
65831;SDS011;52593;42.648;23.332;2023-07-20T00:13:21;10.67;;;2.43;;
65831;SDS011;52593;42.648;23.332;2023-07-20T00:15:47;11.27;;;2.42;;
65831;SDS011;52593;42.648;23.332;2023-07-20T00:18:12;9.13;;;2.80;;
65831;SDS011;52593;42.648;23.332;2023-07-20T00:20:38;9.00;;;2.30;;
65831;SDS011;52593;42.648;23.332;2023-07-20T00:23:04;9.45;;;2.20;;
65831;SDS011;52593;42.648;23.332;2023-07-20T00:25:30;9.20;;;2.20;;
65831;SDS011;52593;42.648;23.332;2023-07-20T00:27:55;12.43;;;2.83;;
65831;SDS011;52593;42.648;23.332;2023-07-20T00:30:21;10.40;;;2.57;;
65831;SDS011;52593;42.648;23.332;2023-07-20T00:32:46;10.38;;;2.03;;
65831;SDS011;52593;42.648;23.332;2023-07-20T00:35:13;9.27;;;2.33;;
65831;SDS011;52593;42.648;23.332;2023-07-20T00:37:39;9.27;;;2.15;;
65831;SDS011;52593;42.648;23.332;2023-07-20T00:40:05;6.60;;;2.47;;
65831;SDS011;52593;42.648;23.332;2023-07-20T00:42:32;11.23;;;2.42;;
65831;SDS011;52593;42.648;23.332;2023-07-20T00:44:58;8.30;;;2.50;;
65831;SDS011;52593;42.648;23.332;2023-07-20T00:47:23;8.10;;;2.40;;
65831;SDS011;52593;42.648;23.332;2023-07-20T00:49:49;8.43;;;2.10;;
65831;SDS011;52593;42.648;23.332;2023-07-20T00:52:16;9.38;;;2.53;;
65831;SDS011;52593;42.648;23.332;2023-07-20T00:54:43;10.53;;;2.60;;
65831;SDS011;52593;42.648;23.332;2023-07-20T00:57:09;9.30;;;2.38;;
65831;SDS011;52593;42.648;23.332;2023-07-20T00:59:34;11.03;;;2.80;;
65831;SDS011;52593;42.648;23.332;2023-07-20T01:02:01;8.18;;;2.28;;
65831;SDS011;52593;42.648;23.332;2023-07-20T01:04:27;7.75;;;2.22;;
65831;SDS011;52593;42.648;23.332;2023-07-20T01:09:39;8.90;;;2.40;;
65831;SDS011;52593;42.648;23.332;2023-07-20T01:15:00;8.93;;;2.60;;
65831;SDS011;52593;42.648;23.332;2023-07-20T01:17:26;8.10;;;2.13;;
65831;SDS011;52593;42.648;23.332;2023-07-20T01:19:51;7.57;;;2.30;;
65831;SDS011;52593;42.648;23.332;2023-07-20T01:33:36;8.52;;;2.10;;
65831;SDS011;52593;42.648;23.332;2023-07-20T01:36:03;8.55;;;2.95;;
65831;SDS011;52593;42.648;23.332;2023-07-20T01:38:30;8.57;;;2.10;;
65831;SDS011;52593;42.648;23.332;2023-07-20T01:40:56;11.47;;;2.20;;
65831;SDS011;52593;42.648;23.332;2023-07-20T01:43:22;7.47;;;2.20;;
65831;SDS011;52593;42.648;23.332;2023-07-20T01:45:47;7.67;;;2.30;;
65831;SDS011;52593;42.648;23.332;2023-07-20T01:48:13;8.63;;;2.35;;
65831;SDS011;52593;42.648;23.332;2023-07-20T01:50:38;7.77;;;2.50;;
65831;SDS011;52593;42.648;23.332;2023-07-20T01:53:04;7.77;;;2.13;;
65831;SDS011;52593;42.648;23.332;2023-07-20T01:55:29;8.70;;;2.47;;
65831;SDS011;52593;42.648;23.332;2023-07-20T01:57:55;10.20;;;2.38;;
65831;SDS011;52593;42.648;23.332;2023-07-20T02:00:20;11.00;;;2.60;;
65831;SDS011;52593;42.648;23.332;2023-07-20T02:02:49;7.03;;;2.70;;
65831;SDS011;52593;42.648;23.332;2023-07-20T02:05:15;7.50;;;2.40;;
65831;SDS011;52593;42.648;23.332;2023-07-20T02:07:40;8.03;;;2.40;;
65831;SDS011;52593;42.648;23.332;2023-07-20T02:10:06;7.50;;;2.33;;
65831;SDS011;52593;42.648;23.332;2023-07-20T02:12:32;6.13;;;1.97;;
65831;SDS011;52593;42.648;23.332;2023-07-20T02:14:57;7.57;;;2.00;;
65831;SDS011;52593;42.648;23.332;2023-07-20T02:17:23;8.63;;;2.47;;
65831;SDS011;52593;42.648;23.332;2023-07-20T02:19:52;6.47;;;1.93;;
65831;SDS011;52593;42.648;23.332;2023-07-20T02:22:18;6.63;;;2.10;;
65831;SDS011;52593;42.648;23.332;2023-07-20T02:24:44;8.17;;;2.33;;
65831;SDS011;52593;42.648;23.332;2023-07-20T02:27:09;8.40;;;2.07;;
65831;SDS011;52593;42.648;23.332;2023-07-20T02:29:35;7.13;;;2.00;;
65831;SDS011;52593;42.648;23.332;2023-07-20T02:32:01;8.13;;;2.33;;
65831;SDS011;52593;42.648;23.332;2023-07-20T02:34:26;9.48;;;2.03;;
65831;SDS011;52593;42.648;23.332;2023-07-20T02:36:52;8.23;;;1.97;;
65831;SDS011;52593;42.648;23.332;2023-07-20T02:39:17;7.80;;;1.87;;
65831;SDS011;52593;42.648;23.332;2023-07-20T02:41:42;8.20;;;2.43;;
65831;SDS011;52593;42.648;23.332;2023-07-20T02:44:08;10.15;;;2.58;;
65831;SDS011;52593;42.648;23.332;2023-07-20T02:46:33;8.83;;;2.00;;
65831;SDS011;52593;42.648;23.332;2023-07-20T02:49:00;11.05;;;2.22;;
65831;SDS011;52593;42.648;23.332;2023-07-20T02:51:26;7.50;;;2.30;;
65831;SDS011;52593;42.648;23.332;2023-07-20T02:53:51;8.27;;;2.10;;
65831;SDS011;52593;42.648;23.332;2023-07-20T02:56:16;9.07;;;2.30;;
65831;SDS011;52593;42.648;23.332;2023-07-20T02:58:43;9.63;;;2.35;;
65831;SDS011;52593;42.648;23.332;2023-07-20T03:01:09;12.30;;;2.30;;
65831;SDS011;52593;42.648;23.332;2023-07-20T03:03:37;10.85;;;2.45;;
65831;SDS011;52593;42.648;23.332;2023-07-20T03:06:03;9.00;;;2.58;;
65831;SDS011;52593;42.648;23.332;2023-07-20T03:08:28;6.70;;;2.47;;
65831;SDS011;52593;42.648;23.332;2023-07-20T03:10:55;8.88;;;2.20;;
65831;SDS011;52593;42.648;23.332;2023-07-20T03:13:20;8.67;;;2.50;;
65831;SDS011;52593;42.648;23.332;2023-07-20T03:15:45;9.40;;;2.27;;
65831;SDS011;52593;42.648;23.332;2023-07-20T03:18:11;11.37;;;2.60;;
65831;SDS011;52593;42.648;23.332;2023-07-20T03:20:36;10.40;;;2.47;;
65831;SDS011;52593;42.648;23.332;2023-07-20T03:23:03;12.43;;;3.85;;
65831;SDS011;52593;42.648;23.332;2023-07-20T03:25:28;12.53;;;2.37;;
65831;SDS011;52593;42.648;23.332;2023-07-20T03:27:54;11.57;;;2.30;;
65831;SDS011;52593;42.648;23.332;2023-07-20T03:30:19;11.63;;;2.78;;
65831;SDS011;52593;42.648;23.332;2023-07-20T03:32:45;12.23;;;2.50;;
65831;SDS011;52593;42.648;23.332;2023-07-20T03:35:10;7.63;;;2.13;;
65831;SDS011;52593;42.648;23.332;2023-07-20T03:37:36;9.33;;;2.73;;
65831;SDS011;52593;42.648;23.332;2023-07-20T03:40:02;10.30;;;2.92;;
65831;SDS011;52593;42.648;23.332;2023-07-20T03:42:28;6.93;;;2.33;;
65831;SDS011;52593;42.648;23.332;2023-07-20T03:44:53;11.43;;;2.50;;
65831;SDS011;52593;42.648;23.332;2023-07-20T03:47:19;10.87;;;2.80;;
65831;SDS011;52593;42.648;23.332;2023-07-20T03:49:44;9.13;;;2.40;;
65831;SDS011;52593;42.648;23.332;2023-07-20T03:52:09;9.43;;;2.67;;
65831;SDS011;52593;42.648;23.332;2023-07-20T03:54:35;10.33;;;3.13;;
65831;SDS011;52593;42.648;23.332;2023-07-20T03:57:00;8.10;;;2.90;;
65831;SDS011;52593;42.648;23.332;2023-07-20T03:59:25;7.63;;;2.30;;
65831;SDS011;52593;42.648;23.332;2023-07-20T04:01:51;10.85;;;2.78;;
65831;SDS011;52593;42.648;23.332;2023-07-20T04:04:16;7.40;;;2.53;;
65831;SDS011;52593;42.648;23.332;2023-07-20T04:06:42;5.73;;;2.60;;
65831;SDS011;52593;42.648;23.332;2023-07-20T04:09:11;9.98;;;2.78;;
65831;SDS011;52593;42.648;23.332;2023-07-20T04:11:37;10.30;;;2.95;;
65831;SDS011;52593;42.648;23.332;2023-07-20T04:14:03;11.32;;;3.15;;
65831;SDS011;52593;42.648;23.332;2023-07-20T04:16:28;10.50;;;3.57;;
65831;SDS011;52593;42.648;23.332;2023-07-20T04:18:57;8.00;;;2.70;;
65831;SDS011;52593;42.648;23.332;2023-07-20T04:21:22;10.02;;;3.13;;
65831;SDS011;52593;42.648;23.332;2023-07-20T04:23:48;10.90;;;3.22;;
65831;SDS011;52593;42.648;23.332;2023-07-20T04:26:13;11.03;;;3.17;;
65831;SDS011;52593;42.648;23.332;2023-07-20T04:28:39;9.45;;;3.00;;
65831;SDS011;52593;42.648;23.332;2023-07-20T04:31:10;9.50;;;3.60;;
65831;SDS011;52593;42.648;23.332;2023-07-20T04:33:40;13.88;;;3.28;;
65831;SDS011;52593;42.648;23.332;2023-07-20T04:36:06;10.57;;;3.17;;
65831;SDS011;52593;42.648;23.332;2023-07-20T04:38:32;11.10;;;3.20;;
65831;SDS011;52593;42.648;23.332;2023-07-20T04:40:58;13.05;;;3.40;;
65831;SDS011;52593;42.648;23.332;2023-07-20T04:43:23;10.10;;;3.20;;
65831;SDS011;52593;42.648;23.332;2023-07-20T04:45:49;11.90;;;3.15;;
65831;SDS011;52593;42.648;23.332;2023-07-20T04:48:15;11.37;;;3.37;;
65831;SDS011;52593;42.648;23.332;2023-07-20T04:50:42;9.90;;;3.03;;
65831;SDS011;52593;42.648;23.332;2023-07-20T04:53:09;12.40;;;3.13;;
65831;SDS011;52593;42.648;23.332;2023-07-20T04:55:35;12.83;;;3.23;;
65831;SDS011;52593;42.648;23.332;2023-07-20T04:58:02;9.27;;;3.27;;
65831;SDS011;52593;42.648;23.332;2023-07-20T05:00:34;13.13;;;3.17;;
65831;SDS011;52593;42.648;23.332;2023-07-20T05:03:00;10.57;;;3.20;;
65831;SDS011;52593;42.648;23.332;2023-07-20T05:05:26;11.90;;;3.30;;
65831;SDS011;52593;42.648;23.332;2023-07-20T05:07:51;10.17;;;3.73;;
65831;SDS011;52593;42.648;23.332;2023-07-20T05:10:17;11.10;;;3.00;;
65831;SDS011;52593;42.648;23.332;2023-07-20T05:12:42;15.17;;;3.70;;
65831;SDS011;52593;42.648;23.332;2023-07-20T05:15:08;14.07;;;3.60;;
65831;SDS011;52593;42.648;23.332;2023-07-20T05:17:34;13.07;;;3.83;;
65831;SDS011;52593;42.648;23.332;2023-07-20T05:19:59;13.88;;;3.50;;
65831;SDS011;52593;42.648;23.332;2023-07-20T05:22:24;10.90;;;3.57;;
65831;SDS011;52593;42.648;23.332;2023-07-20T05:24:50;15.33;;;4.87;;
65831;SDS011;52593;42.648;23.332;2023-07-20T05:27:15;12.27;;;3.93;;
65831;SDS011;52593;42.648;23.332;2023-07-20T05:29:45;15.45;;;3.60;;
65831;SDS011;52593;42.648;23.332;2023-07-20T05:32:11;13.00;;;3.30;;
65831;SDS011;52593;42.648;23.332;2023-07-20T05:34:36;9.05;;;2.90;;
65831;SDS011;52593;42.648;23.332;2023-07-20T05:37:08;10.03;;;2.83;;
65831;SDS011;52593;42.648;23.332;2023-07-20T05:39:33;14.55;;;3.35;;
65831;SDS011;52593;42.648;23.332;2023-07-20T05:41:59;10.93;;;2.43;;
65831;SDS011;52593;42.648;23.332;2023-07-20T05:44:24;8.97;;;2.80;;
65831;SDS011;52593;42.648;23.332;2023-07-20T05:46:50;12.03;;;3.03;;
65831;SDS011;52593;42.648;23.332;2023-07-20T05:49:15;9.40;;;3.40;;
65831;SDS011;52593;42.648;23.332;2023-07-20T05:51:40;8.73;;;2.73;;
65831;SDS011;52593;42.648;23.332;2023-07-20T05:54:06;12.13;;;2.60;;
65831;SDS011;52593;42.648;23.332;2023-07-20T05:56:31;11.10;;;2.67;;
65831;SDS011;52593;42.648;23.332;2023-07-20T05:58:57;10.30;;;3.03;;
65831;SDS011;52593;42.648;23.332;2023-07-20T06:01:22;11.57;;;2.80;;
65831;SDS011;52593;42.648;23.332;2023-07-20T06:03:47;10.87;;;3.00;;
65831;SDS011;52593;42.648;23.332;2023-07-20T06:06:31;8.63;;;2.90;;
65831;SDS011;52593;42.648;23.332;2023-07-20T06:08:56;10.30;;;2.97;;
65831;SDS011;52593;42.648;23.332;2023-07-20T06:11:22;12.77;;;2.90;;
65831;SDS011;52593;42.648;23.332;2023-07-20T06:13:47;10.83;;;2.90;;
65831;SDS011;52593;42.648;23.332;2023-07-20T06:16:12;12.70;;;3.07;;
65831;SDS011;52593;42.648;23.332;2023-07-20T06:18:38;10.20;;;3.20;;
65831;SDS011;52593;42.648;23.332;2023-07-20T06:21:04;10.60;;;2.90;;
65831;SDS011;52593;42.648;23.332;2023-07-20T06:23:29;8.35;;;2.85;;
65831;SDS011;52593;42.648;23.332;2023-07-20T06:25:55;12.63;;;2.77;;
65831;SDS011;52593;42.648;23.332;2023-07-20T06:28:20;10.73;;;3.17;;
65831;SDS011;52593;42.648;23.332;2023-07-20T06:30:46;12.63;;;3.30;;
65831;SDS011;52593;42.648;23.332;2023-07-20T06:33:11;10.98;;;2.97;;
65831;SDS011;52593;42.648;23.332;2023-07-20T06:35:37;9.17;;;3.00;;
65831;SDS011;52593;42.648;23.332;2023-07-20T06:38:02;9.53;;;3.03;;
65831;SDS011;52593;42.648;23.332;2023-07-20T06:40:28;10.75;;;2.97;;
65831;SDS011;52593;42.648;23.332;2023-07-20T06:42:55;12.80;;;3.40;;
65831;SDS011;52593;42.648;23.332;2023-07-20T06:45:20;12.30;;;3.40;;
65831;SDS011;52593;42.648;23.332;2023-07-20T06:47:46;11.20;;;3.13;;
65831;SDS011;52593;42.648;23.332;2023-07-20T06:50:11;10.23;;;2.93;;
65831;SDS011;52593;42.648;23.332;2023-07-20T06:52:37;8.68;;;3.00;;
65831;SDS011;52593;42.648;23.332;2023-07-20T06:55:04;10.85;;;3.17;;
65831;SDS011;52593;42.648;23.332;2023-07-20T06:57:31;12.00;;;3.47;;
65831;SDS011;52593;42.648;23.332;2023-07-20T06:59:56;12.07;;;3.10;;
65831;SDS011;52593;42.648;23.332;2023-07-20T07:02:22;11.60;;;3.20;;
65831;SDS011;52593;42.648;23.332;2023-07-20T07:04:47;10.40;;;3.10;;
65831;SDS011;52593;42.648;23.332;2023-07-20T07:07:15;12.57;;;2.60;;
65831;SDS011;52593;42.648;23.332;2023-07-20T07:09:41;11.20;;;2.55;;
65831;SDS011;52593;42.648;23.332;2023-07-20T07:12:07;12.07;;;3.08;;
65831;SDS011;52593;42.648;23.332;2023-07-20T07:14:33;12.27;;;4.25;;
65831;SDS011;52593;42.648;23.332;2023-07-20T07:16:58;15.03;;;3.67;;
65831;SDS011;52593;42.648;23.332;2023-07-20T07:19:24;15.97;;;3.50;;
65831;SDS011;52593;42.648;23.332;2023-07-20T07:21:49;14.73;;;2.95;;
65831;SDS011;52593;42.648;23.332;2023-07-20T07:24:15;11.17;;;3.33;;
65831;SDS011;52593;42.648;23.332;2023-07-20T07:26:41;10.32;;;3.33;;
65831;SDS011;52593;42.648;23.332;2023-07-20T07:29:07;12.93;;;3.17;;
65831;SDS011;52593;42.648;23.332;2023-07-20T07:31:33;7.90;;;3.00;;
65831;SDS011;52593;42.648;23.332;2023-07-20T07:34:03;11.50;;;5.07;;
65831;SDS011;52593;42.648;23.332;2023-07-20T07:36:30;12.18;;;3.90;;
65831;SDS011;52593;42.648;23.332;2023-07-20T07:38:58;10.73;;;4.13;;
65831;SDS011;52593;42.648;23.332;2023-07-20T07:41:23;13.97;;;4.40;;
65831;SDS011;52593;42.648;23.332;2023-07-20T07:43:48;11.83;;;4.53;;
65831;SDS011;52593;42.648;23.332;2023-07-20T07:46:14;15.90;;;4.40;;
65831;SDS011;52593;42.648;23.332;2023-07-20T07:48:39;13.50;;;4.20;;
65831;SDS011;52593;42.648;23.332;2023-07-20T07:51:05;12.37;;;4.50;;
65831;SDS011;52593;42.648;23.332;2023-07-20T07:53:30;12.60;;;4.15;;
65831;SDS011;52593;42.648;23.332;2023-07-20T07:55:57;11.82;;;4.07;;
65831;SDS011;52593;42.648;23.332;2023-07-20T07:58:22;13.07;;;4.10;;
65831;SDS011;52593;42.648;23.332;2023-07-20T08:00:48;14.63;;;4.45;;
65831;SDS011;52593;42.648;23.332;2023-07-20T08:03:14;15.50;;;4.50;;
65831;SDS011;52593;42.648;23.332;2023-07-20T08:05:39;11.87;;;4.17;;
65831;SDS011;52593;42.648;23.332;2023-07-20T08:08:04;15.03;;;4.17;;
65831;SDS011;52593;42.648;23.332;2023-07-20T08:10:30;14.10;;;4.83;;
65831;SDS011;52593;42.648;23.332;2023-07-20T08:12:56;13.02;;;4.10;;
65831;SDS011;52593;42.648;23.332;2023-07-20T08:15:21;13.80;;;3.78;;
65831;SDS011;52593;42.648;23.332;2023-07-20T08:17:47;12.57;;;4.23;;
65831;SDS011;52593;42.648;23.332;2023-07-20T08:20:13;10.43;;;3.80;;
65831;SDS011;52593;42.648;23.332;2023-07-20T08:22:41;11.55;;;3.60;;
65831;SDS011;52593;42.648;23.332;2023-07-20T08:25:06;13.60;;;4.90;;
65831;SDS011;52593;42.648;23.332;2023-07-20T08:27:32;15.20;;;5.03;;
65831;SDS011;52593;42.648;23.332;2023-07-20T08:29:57;15.70;;;4.18;;
65831;SDS011;52593;42.648;23.332;2023-07-20T08:32:23;15.93;;;4.40;;
65831;SDS011;52593;42.648;23.332;2023-07-20T08:34:48;5.70;;;2.33;;
65831;SDS011;52593;42.648;23.332;2023-07-20T08:37:13;6.33;;;1.80;;
65831;SDS011;52593;42.648;23.332;2023-07-20T08:39:39;13.63;;;2.10;;
65831;SDS011;52593;42.648;23.332;2023-07-20T08:42:04;10.25;;;2.63;;
65831;SDS011;52593;42.648;23.332;2023-07-20T08:44:34;10.20;;;1.90;;
65831;SDS011;52593;42.648;23.332;2023-07-20T08:47:01;8.75;;;1.70;;
65831;SDS011;52593;42.648;23.332;2023-07-20T08:49:33;8.13;;;1.65;;
65831;SDS011;52593;42.648;23.332;2023-07-20T08:51:59;9.02;;;1.50;;
65831;SDS011;52593;42.648;23.332;2023-07-20T08:54:27;11.18;;;1.80;;
65831;SDS011;52593;42.648;23.332;2023-07-20T08:56:55;10.60;;;1.80;;
65831;SDS011;52593;42.648;23.332;2023-07-20T08:59:22;7.68;;;1.70;;
65831;SDS011;52593;42.648;23.332;2023-07-20T09:01:49;8.05;;;1.55;;
65831;SDS011;52593;42.648;23.332;2023-07-20T09:04:15;7.25;;;1.80;;
65831;SDS011;52593;42.648;23.332;2023-07-20T09:06:41;7.23;;;2.20;;
65831;SDS011;52593;42.648;23.332;2023-07-20T09:09:07;10.38;;;2.05;;
65831;SDS011;52593;42.648;23.332;2023-07-20T09:11:32;10.93;;;2.37;;
65831;SDS011;52593;42.648;23.332;2023-07-20T09:14:04;6.27;;;1.70;;
65831;SDS011;52593;42.648;23.332;2023-07-20T09:16:31;7.72;;;2.10;;
65831;SDS011;52593;42.648;23.332;2023-07-20T09:19:00;10.30;;;2.30;;
65831;SDS011;52593;42.648;23.332;2023-07-20T09:21:28;7.13;;;2.03;;
65831;SDS011;52593;42.648;23.332;2023-07-20T09:23:56;12.73;;;2.17;;
65831;SDS011;52593;42.648;23.332;2023-07-20T09:26:22;10.02;;;2.05;;
65831;SDS011;52593;42.648;23.332;2023-07-20T09:28:48;7.70;;;2.10;;
65831;SDS011;52593;42.648;23.332;2023-07-20T09:31:18;10.77;;;2.00;;
65831;SDS011;52593;42.648;23.332;2023-07-20T09:33:48;7.15;;;1.73;;
65831;SDS011;52593;42.648;23.332;2023-07-20T09:36:14;8.27;;;1.80;;
65831;SDS011;52593;42.648;23.332;2023-07-20T09:38:39;8.90;;;1.77;;
65831;SDS011;52593;42.648;23.332;2023-07-20T09:41:06;7.38;;;1.90;;
65831;SDS011;52593;42.648;23.332;2023-07-20T09:43:33;7.77;;;1.70;;
65831;SDS011;52593;42.648;23.332;2023-07-20T09:45:59;8.85;;;2.10;;
65831;SDS011;52593;42.648;23.332;2023-07-20T09:48:25;10.33;;;2.03;;
65831;SDS011;52593;42.648;23.332;2023-07-20T09:50:52;8.43;;;1.48;;
65831;SDS011;52593;42.648;23.332;2023-07-20T09:53:18;8.43;;;2.40;;
65831;SDS011;52593;42.648;23.332;2023-07-20T09:55:45;8.45;;;2.40;;
65831;SDS011;52593;42.648;23.332;2023-07-20T09:58:12;8.38;;;1.88;;
65831;SDS011;52593;42.648;23.332;2023-07-20T10:00:38;7.83;;;1.80;;
65831;SDS011;52593;42.648;23.332;2023-07-20T10:03:06;5.85;;;1.73;;
65831;SDS011;52593;42.648;23.332;2023-07-20T10:05:43;7.47;;;1.95;;
65831;SDS011;52593;42.648;23.332;2023-07-20T10:08:12;8.93;;;1.60;;
65831;SDS011;52593;42.648;23.332;2023-07-20T10:10:40;12.83;;;2.00;;
65831;SDS011;52593;42.648;23.332;2023-07-20T10:13:09;7.03;;;1.90;;
65831;SDS011;52593;42.648;23.332;2023-07-20T10:15:50;6.43;;;1.67;;
65831;SDS011;52593;42.648;23.332;2023-07-20T10:18:34;6.65;;;1.92;;
65831;SDS011;52593;42.648;23.332;2023-07-20T10:21:06;6.93;;;1.45;;
65831;SDS011;52593;42.648;23.332;2023-07-20T10:23:33;6.13;;;1.80;;
65831;SDS011;52593;42.648;23.332;2023-07-20T10:25:59;7.15;;;1.92;;
65831;SDS011;52593;42.648;23.332;2023-07-20T10:28:26;7.07;;;1.83;;
65831;SDS011;52593;42.648;23.332;2023-07-20T10:30:52;6.15;;;1.70;;
65831;SDS011;52593;42.648;23.332;2023-07-20T10:33:18;7.00;;;2.00;;
65831;SDS011;52593;42.648;23.332;2023-07-20T10:35:57;8.88;;;1.92;;
65831;SDS011;52593;42.648;23.332;2023-07-20T10:41:15;8.80;;;1.90;;
65831;SDS011;52593;42.648;23.332;2023-07-20T10:43:42;6.83;;;2.43;;
65831;SDS011;52593;42.648;23.332;2023-07-20T10:46:10;11.10;;;2.28;;
65831;SDS011;52593;42.648;23.332;2023-07-20T10:48:36;6.88;;;2.20;;
65831;SDS011;52593;42.648;23.332;2023-07-20T10:51:25;6.32;;;1.70;;
65831;SDS011;52593;42.648;23.332;2023-07-20T10:53:50;8.50;;;2.10;;
65831;SDS011;52593;42.648;23.332;2023-07-20T10:56:20;6.80;;;1.95;;
65831;SDS011;52593;42.648;23.332;2023-07-20T10:58:47;10.75;;;2.38;;
65831;SDS011;52593;42.648;23.332;2023-07-20T11:01:13;8.03;;;2.23;;
65831;SDS011;52593;42.648;23.332;2023-07-20T11:03:40;9.30;;;2.63;;
65831;SDS011;52593;42.648;23.332;2023-07-20T11:08:54;6.88;;;2.40;;
65831;SDS011;52593;42.648;23.332;2023-07-20T11:11:31;9.07;;;2.30;;
65831;SDS011;52593;42.648;23.332;2023-07-20T11:14:00;9.20;;;2.30;;
65831;SDS011;52593;42.648;23.332;2023-07-20T11:16:36;11.02;;;2.83;;
65831;SDS011;52593;42.648;23.332;2023-07-20T11:19:06;9.67;;;2.87;;
65831;SDS011;52593;42.648;23.332;2023-07-20T11:21:41;11.52;;;2.60;;
65831;SDS011;52593;42.648;23.332;2023-07-20T11:24:07;10.88;;;2.38;;
65831;SDS011;52593;42.648;23.332;2023-07-20T11:29:29;8.73;;;3.20;;
65831;SDS011;52593;42.648;23.332;2023-07-20T11:31:54;10.63;;;3.00;;
65831;SDS011;52593;42.648;23.332;2023-07-20T11:34:21;8.23;;;2.90;;
65831;SDS011;52593;42.648;23.332;2023-07-20T11:36:47;7.93;;;3.40;;
65831;SDS011;52593;42.648;23.332;2023-07-20T11:39:14;9.07;;;3.20;;
65831;SDS011;52593;42.648;23.332;2023-07-20T11:41:46;11.27;;;3.55;;
65831;SDS011;52593;42.648;23.332;2023-07-20T11:44:13;10.30;;;3.67;;
65831;SDS011;52593;42.648;23.332;2023-07-20T11:46:40;10.37;;;3.97;;
65831;SDS011;52593;42.648;23.332;2023-07-20T11:49:07;10.45;;;4.80;;
65831;SDS011;52593;42.648;23.332;2023-07-20T11:51:33;10.05;;;4.38;;
65831;SDS011;52593;42.648;23.332;2023-07-20T11:54:00;10.75;;;4.57;;
65831;SDS011;52593;42.648;23.332;2023-07-20T11:56:27;11.50;;;4.68;;
65831;SDS011;52593;42.648;23.332;2023-07-20T11:58:55;8.73;;;4.50;;
65831;SDS011;52593;42.648;23.332;2023-07-20T12:01:24;9.73;;;4.63;;
65831;SDS011;52593;42.648;23.332;2023-07-20T12:03:51;10.20;;;4.63;;
65831;SDS011;52593;42.648;23.332;2023-07-20T12:06:16;9.75;;;3.88;;
65831;SDS011;52593;42.648;23.332;2023-07-20T12:08:42;11.53;;;4.57;;
65831;SDS011;52593;42.648;23.332;2023-07-20T12:11:09;12.55;;;4.32;;
65831;SDS011;52593;42.648;23.332;2023-07-20T12:13:43;10.38;;;3.85;;
65831;SDS011;52593;42.648;23.332;2023-07-20T12:16:10;10.73;;;4.03;;
65831;SDS011;52593;42.648;23.332;2023-07-20T12:18:36;12.37;;;4.10;;
65831;SDS011;52593;42.648;23.332;2023-07-20T12:21:02;9.40;;;4.10;;
65831;SDS011;52593;42.648;23.332;2023-07-20T12:23:34;8.65;;;4.07;;
65831;SDS011;52593;42.648;23.332;2023-07-20T12:26:05;11.35;;;3.72;;
65831;SDS011;52593;42.648;23.332;2023-07-20T12:28:31;8.83;;;3.60;;
65831;SDS011;52593;42.648;23.332;2023-07-20T12:30:57;9.60;;;3.77;;
65831;SDS011;52593;42.648;23.332;2023-07-20T12:33:22;9.70;;;2.80;;
65831;SDS011;52593;42.648;23.332;2023-07-20T12:35:48;10.63;;;2.93;;
65831;SDS011;52593;42.648;23.332;2023-07-20T12:38:14;10.10;;;3.35;;
65831;SDS011;52593;42.648;23.332;2023-07-20T12:40:41;9.13;;;2.75;;
65831;SDS011;52593;42.648;23.332;2023-07-20T12:43:06;9.63;;;3.00;;
65831;SDS011;52593;42.648;23.332;2023-07-20T12:45:32;12.40;;;3.08;;
65831;SDS011;52593;42.648;23.332;2023-07-20T12:47:58;8.03;;;2.30;;
65831;SDS011;52593;42.648;23.332;2023-07-20T12:50:23;6.80;;;2.17;;
65831;SDS011;52593;42.648;23.332;2023-07-20T12:52:48;9.97;;;3.13;;
65831;SDS011;52593;42.648;23.332;2023-07-20T12:55:14;9.80;;;2.30;;
65831;SDS011;52593;42.648;23.332;2023-07-20T12:57:40;8.20;;;2.37;;
65831;SDS011;52593;42.648;23.332;2023-07-20T13:00:06;9.20;;;2.70;;
65831;SDS011;52593;42.648;23.332;2023-07-20T13:02:33;8.25;;;3.00;;
65831;SDS011;52593;42.648;23.332;2023-07-20T13:04:59;9.73;;;2.40;;
65831;SDS011;52593;42.648;23.332;2023-07-20T13:07:31;7.97;;;2.80;;
65831;SDS011;52593;42.648;23.332;2023-07-20T13:09:58;7.28;;;2.70;;
65831;SDS011;52593;42.648;23.332;2023-07-20T13:12:25;9.80;;;2.73;;
65831;SDS011;52593;42.648;23.332;2023-07-20T13:14:54;6.60;;;2.40;;
65831;SDS011;52593;42.648;23.332;2023-07-20T13:17:21;8.10;;;2.22;;
65831;SDS011;52593;42.648;23.332;2023-07-20T13:19:47;6.28;;;2.47;;
65831;SDS011;52593;42.648;23.332;2023-07-20T13:22:12;8.00;;;2.80;;
65831;SDS011;52593;42.648;23.332;2023-07-20T13:24:39;9.30;;;2.20;;
65831;SDS011;52593;42.648;23.332;2023-07-20T13:27:05;6.72;;;2.15;;
65831;SDS011;52593;42.648;23.332;2023-07-20T13:29:31;9.27;;;2.53;;
65831;SDS011;52593;42.648;23.332;2023-07-20T13:31:57;6.03;;;1.98;;
65831;SDS011;52593;42.648;23.332;2023-07-20T13:34:22;8.83;;;2.63;;
65831;SDS011;52593;42.648;23.332;2023-07-20T13:36:49;12.20;;;2.65;;
65831;SDS011;52593;42.648;23.332;2023-07-20T13:39:14;9.07;;;2.50;;
65831;SDS011;52593;42.648;23.332;2023-07-20T13:41:40;8.53;;;2.33;;
65831;SDS011;52593;42.648;23.332;2023-07-20T13:44:05;8.33;;;2.63;;
65831;SDS011;52593;42.648;23.332;2023-07-20T13:46:31;9.03;;;2.90;;
65831;SDS011;52593;42.648;23.332;2023-07-20T13:48:56;9.65;;;2.58;;
65831;SDS011;52593;42.648;23.332;2023-07-20T13:51:21;7.73;;;1.97;;
65831;SDS011;52593;42.648;23.332;2023-07-20T13:53:47;9.47;;;2.23;;
65831;SDS011;52593;42.648;23.332;2023-07-20T13:56:13;7.65;;;2.35;;
65831;SDS011;52593;42.648;23.332;2023-07-20T13:58:39;8.52;;;2.22;;
65831;SDS011;52593;42.648;23.332;2023-07-20T14:01:04;9.33;;;2.40;;
65831;SDS011;52593;42.648;23.332;2023-07-20T14:03:29;8.63;;;2.33;;
65831;SDS011;52593;42.648;23.332;2023-07-20T14:05:55;10.30;;;2.37;;
65831;SDS011;52593;42.648;23.332;2023-07-20T14:08:21;9.73;;;2.38;;
65831;SDS011;52593;42.648;23.332;2023-07-20T14:10:47;7.40;;;2.10;;
65831;SDS011;52593;42.648;23.332;2023-07-20T14:13:12;10.98;;;2.08;;
65831;SDS011;52593;42.648;23.332;2023-07-20T14:15:38;7.90;;;2.23;;
65831;SDS011;52593;42.648;23.332;2023-07-20T14:18:05;10.30;;;2.38;;
65831;SDS011;52593;42.648;23.332;2023-07-20T14:20:31;7.43;;;2.07;;
65831;SDS011;52593;42.648;23.332;2023-07-20T14:22:56;9.37;;;2.27;;
65831;SDS011;52593;42.648;23.332;2023-07-20T14:25:21;5.13;;;1.57;;
65831;SDS011;52593;42.648;23.332;2023-07-20T14:27:47;6.93;;;1.93;;
65831;SDS011;52593;42.648;23.332;2023-07-20T14:30:12;10.13;;;2.35;;
65831;SDS011;52593;42.648;23.332;2023-07-20T14:32:38;12.30;;;2.20;;
65831;SDS011;52593;42.648;23.332;2023-07-20T14:35:04;6.82;;;2.08;;
65831;SDS011;52593;42.648;23.332;2023-07-20T14:37:30;7.32;;;2.55;;
65831;SDS011;52593;42.648;23.332;2023-07-20T14:39:55;8.23;;;2.17;;
65831;SDS011;52593;42.648;23.332;2023-07-20T14:42:20;7.53;;;2.00;;
65831;SDS011;52593;42.648;23.332;2023-07-20T14:44:46;7.97;;;2.40;;
65831;SDS011;52593;42.648;23.332;2023-07-20T14:47:11;8.60;;;2.30;;
65831;SDS011;52593;42.648;23.332;2023-07-20T14:49:36;8.70;;;2.47;;